Time;durP1;ratioP1;P1;durP2;ratioP2;P2;SDS_P1;SDS_P2;PMS_P1;PMS_P2;Temp;Humidity;BMP_temperature;BMP_pressure;BME280_temperature;BME280_humidity;BME280_pressure;Samples;Min_cycle;Max_cycle;Signal;HPM_P1;HPM_P2
2023/10/17 00:00:32;;;;;;;18.92;11.10;;;9.30;87.30;;;;;;4997241;28;20132;-74
2023/10/17 00:02:59;;;;;;;17.13;10.82;;;9.30;87.40;;;;;;5001414;28;20084;-75
2023/10/17 00:05:25;;;;;;;16.67;10.93;;;9.20;87.40;;;;;;4999747;28;20049;-74
2023/10/17 00:07:51;;;;;;;15.23;11.35;;;9.30;87.60;;;;;;5001221;28;20527;-73
2023/10/17 00:10:18;;;;;;;15.85;10.77;;;9.20;87.60;;;;;;5001563;28;20125;-74
2023/10/17 00:12:46;;;;;;;17.05;11.57;;;9.20;87.60;;;;;;5002570;28;20018;-73
2023/10/17 00:15:46;;;;;;;18.50;10.90;;;9.10;87.70;;;;;;4996185;28;20153;-74
2023/10/17 00:18:11;;;;;;;14.52;11.50;;;9.20;87.70;;;;;;4990733;28;20034;-73
2023/10/17 00:20:37;;;;;;;19.58;12.43;;;9.20;87.70;;;;;;4993531;28;20034;-74
2023/10/17 00:23:05;;;;;;;20.05;12.82;;;9.10;87.80;;;;;;4998391;28;20037;-73
2023/10/17 00:25:30;;;;;;;17.42;12.40;;;9.10;87.90;;;;;;4999668;28;20075;-74
2023/10/17 00:27:58;;;;;;;18.95;13.48;;;9.10;87.80;;;;;;4991483;28;20035;-74
2023/10/17 00:30:24;;;;;;;25.40;16.63;;;9.10;87.90;;;;;;4998404;28;20038;-74
2023/10/17 00:32:50;;;;;;;25.05;16.15;;;9.20;88.00;;;;;;5000486;28;20488;-75
2023/10/17 00:35:18;;;;;;;24.48;17.75;;;9.10;88.00;;;;;;4999545;28;20649;-74
2023/10/17 00:37:56;;;;;;;24.13;18.75;;;9.10;88.00;;;;;;5003752;28;20121;-75
2023/10/17 00:40:35;;;;;;;29.90;22.63;;;9.10;88.00;;;;;;4996877;28;20480;-76
2023/10/17 00:43:04;;;;;;;31.25;23.95;;;9.10;88.00;;;;;;4997033;28;20497;-74
2023/10/17 00:45:32;;;;;;;30.48;24.92;;;9.10;87.90;;;;;;5002696;28;20140;-74
2023/10/17 00:48:00;;;;;;;33.83;25.45;;;9.10;88.00;;;;;;5001880;28;20516;-75
2023/10/17 00:50:28;;;;;;;30.20;23.70;;;9.10;88.00;;;;;;4997114;28;20135;-74
2023/10/17 00:52:56;;;;;;;34.00;26.48;;;9.10;88.10;;;;;;5002186;28;20388;-75
2023/10/17 00:55:24;;;;;;;32.25;25.58;;;9.10;88.20;;;;;;4995366;28;20080;-75
2023/10/17 00:57:53;;;;;;;34.03;25.38;;;9.10;88.30;;;;;;5002118;28;20046;-74
2023/10/17 01:00:36;;;;;;;32.83;25.83;;;9.10;88.40;;;;;;4993856;28;20060;-76
2023/10/17 01:03:08;;;;;;;34.40;25.63;;;9.10;88.30;;;;;;4997851;28;20026;-74
2023/10/17 01:05:42;;;;;;;34.55;26.33;;;9.10;88.30;;;;;;4993742;28;20737;-75
2023/10/17 01:08:08;;;;;;;31.55;25.10;;;9.10;88.20;;;;;;4996051;28;21196;-76
2023/10/17 01:10:35;;;;;;;33.78;25.73;;;9.10;88.20;;;;;;4996207;28;20030;-75
2023/10/17 01:13:02;;;;;;;33.75;26.73;;;9.10;88.20;;;;;;4998127;28;20014;-73
2023/10/17 01:15:32;;;;;;;34.22;25.17;;;9.20;88.40;;;;;;4995506;28;20404;-75
2023/10/17 01:18:04;;;;;;;32.78;24.70;;;9.10;88.40;;;;;;4998257;28;20033;-75
2023/10/17 01:20:30;;;;;;;30.88;24.42;;;9.10;88.50;;;;;;4996246;28;20173;-74
2023/10/17 01:22:56;;;;;;;35.53;26.13;;;9.10;88.50;;;;;;4998253;28;20105;-74
2023/10/17 01:25:25;;;;;;;34.55;26.58;;;9.10;88.70;;;;;;5000556;28;20186;-74
2023/10/17 01:27:55;;;;;;;34.10;25.92;;;9.10;88.70;;;;;;4996625;28;20069;-74
2023/10/17 01:30:22;;;;;;;33.97;25.85;;;9.10;88.70;;;;;;4999717;28;20038;-77
2023/10/17 01:32:51;;;;;;;31.77;26.50;;;9.10;88.80;;;;;;5000891;28;20431;-76
2023/10/17 01:35:20;;;;;;;34.88;26.83;;;9.10;88.80;;;;;;4997880;28;20038;-74
2023/10/17 01:37:46;;;;;;;37.22;27.88;;;9.00;88.90;;;;;;4997652;28;20026;-73
2023/10/17 01:40:28;;;;;;;36.75;28.88;;;9.10;89.10;;;;;;4994937;28;20030;-75
2023/10/17 01:42:58;;;;;;;39.50;29.83;;;9.10;89.10;;;;;;4997983;28;20492;-76
2023/10/17 01:45:25;;;;;;;37.45;28.65;;;9.10;89.10;;;;;;4997379;28;20133;-74
2023/10/17 01:47:51;;;;;;;38.38;29.73;;;9.00;89.20;;;;;;4997896;28;20095;-74
2023/10/17 01:50:19;;;;;;;43.17;32.17;;;9.10;89.20;;;;;;4995800;28;20427;-74
2023/10/17 01:52:45;;;;;;;45.05;33.10;;;9.00;89.30;;;;;;4986995;28;20022;-76
2023/10/17 01:55:15;;;;;;;42.35;33.10;;;9.00;89.40;;;;;;4999990;28;20045;-75
2023/10/17 01:57:43;;;;;;;43.58;32.75;;;9.10;89.30;;;;;;4998323;28;20038;-74
2023/10/17 02:02:57;;;;;;;44.63;32.47;;;9.10;89.40;;;;;;4996210;28;20562;-74
2023/10/17 02:05:23;;;;;;;47.00;32.72;;;9.10;89.60;;;;;;5000948;28;20034;-73
2023/10/17 02:07:49;;;;;;;41.72;33.55;;;9.00;89.70;;;;;;5003591;28;20064;-74
2023/10/17 02:10:20;;;;;;;43.75;33.08;;;9.00;89.70;;;;;;4994092;28;20061;-73
2023/10/17 02:12:47;;;;;;;43.45;32.28;;;9.00;89.90;;;;;;5001299;28;20033;-75
2023/10/17 02:15:20;;;;;;;45.33;33.28;;;9.00;89.90;;;;;;4997968;28;20052;-74
2023/10/17 02:17:50;;;;;;;39.70;30.50;;;9.10;90.00;;;;;;4991323;28;20053;-73
2023/10/17 02:20:21;;;;;;;45.05;30.55;;;9.10;90.00;;;;;;4996802;28;20026;-74
2023/10/17 02:22:49;;;;;;;39.50;27.75;;;9.00;90.10;;;;;;4998334;28;20092;-75
2023/10/17 02:25:21;;;;;;;39.45;28.88;;;9.00;90.20;;;;;;4995493;28;20043;-74
2023/10/17 02:27:50;;;;;;;38.67;27.48;;;9.10;90.10;;;;;;5000074;28;20033;-74
2023/10/17 02:30:17;;;;;;;33.42;25.30;;;9.00;90.20;;;;;;4993843;28;20094;-74
2023/10/17 02:32:52;;;;;;;35.90;25.52;;;9.00;90.40;;;;;;5000027;28;21683;-74
2023/10/17 02:35:20;;;;;;;31.20;25.02;;;9.00;90.40;;;;;;4992533;28;20038;-74
2023/10/17 02:37:47;;;;;;;31.40;23.83;;;9.00;90.40;;;;;;4999408;28;20096;-75
2023/10/17 02:40:23;;;;;;;32.00;23.63;;;9.00;90.30;;;;;;4997533;28;20088;-75
2023/10/17 02:42:49;;;;;;;29.88;23.23;;;9.10;90.20;;;;;;4997789;28;20033;-73
2023/10/17 02:45:24;;;;;;;33.05;23.83;;;9.10;90.20;;;;;;5000997;28;20599;-74
2023/10/17 02:47:54;;;;;;;31.63;23.55;;;9.10;90.20;;;;;;4994645;28;20542;-76
2023/10/17 02:52:59;;;;;;;32.58;23.67;;;9.10;90.10;;;;;;5002929;28;20452;-75
2023/10/17 02:55:25;;;;;;;33.65;23.75;;;9.10;90.10;;;;;;4998074;28;20484;-73
2023/10/17 02:57:52;;;;;;;34.92;24.17;;;9.10;90.30;;;;;;5003704;28;20485;-74
2023/10/17 03:00:34;;;;;;;32.53;24.63;;;9.10;90.40;;;;;;4995616;28;20023;-73
2023/10/17 03:03:00;;;;;;;31.80;23.58;;;9.10;90.40;;;;;;5002064;28;20025;-73
2023/10/17 03:05:27;;;;;;;30.95;22.17;;;9.10;90.50;;;;;;4998847;28;20030;-74
2023/10/17 03:07:53;;;;;;;31.55;23.45;;;9.10;90.60;;;;;;5001697;28;20109;-73
2023/10/17 03:10:21;;;;;;;31.20;23.65;;;9.10;90.70;;;;;;4996088;28;20045;-74
2023/10/17 03:12:55;;;;;;;31.65;24.15;;;9.10;90.70;;;;;;4998875;28;20068;-72
2023/10/17 03:15:23;;;;;;;33.17;22.90;;;9.10;90.60;;;;;;4999178;28;20092;-75
2023/10/17 03:17:54;;;;;;;32.33;23.15;;;9.00;90.60;;;;;;5000850;28;20037;-74
2023/10/17 03:20:22;;;;;;;34.50;22.80;;;9.00;90.60;;;;;;4998122;28;20118;-73
2023/10/17 03:22:50;;;;;;;35.00;23.58;;;9.00;90.70;;;;;;4998699;28;20053;-75
2023/10/17 03:25:19;;;;;;;33.15;22.23;;;9.00;90.70;;;;;;4995543;28;20057;-75
2023/10/17 03:27:48;;;;;;;27.77;21.65;;;9.00;90.70;;;;;;4993048;28;20029;-73
2023/10/17 03:30:19;;;;;;;31.75;22.50;;;9.00;90.60;;;;;;4996755;28;20042;-73
2023/10/17 03:35:28;;;;;;;32.13;23.92;;;9.00;90.80;;;;;;4993433;28;20096;-73
2023/10/17 03:37:54;;;;;;;32.15;22.58;;;8.90;91.00;;;;;;4993132;28;20073;-75
2023/10/17 03:40:30;;;;;;;31.00;22.63;;;8.90;91.10;;;;;;4998526;28;20045;-74
2023/10/17 03:43:00;;;;;;;31.42;23.42;;;8.90;91.00;;;;;;5008424;28;20048;-74
2023/10/17 03:45:34;;;;;;;32.17;21.52;;;8.90;90.90;;;;;;5003027;28;20034;-74
2023/10/17 03:48:04;;;;;;;28.83;21.65;;;9.00;90.80;;;;;;4999956;28;20037;-74
2023/10/17 03:50:31;;;;;;;33.17;22.55;;;9.00;90.80;;;;;;4994199;28;20562;-74
2023/10/17 03:53:15;;;;;;;32.38;21.40;;;9.00;90.60;;;;;;5004900;28;20029;-74
2023/10/17 03:55:43;;;;;;;31.52;21.52;;;9.00;90.60;;;;;;5002531;28;20627;-75
2023/10/17 03:59:16;;;;;;;28.65;21.48;;;9.00;90.70;;;;;;5006141;28;20443;-76
2023/10/17 04:01:00;;;;;;;29.23;21.15;;;9.00;90.60;;;;;;4990676;28;20746;-74
2023/10/17 04:08:34;;;;;;;29.08;21.27;;;9.00;90.60;;;;;;5005321;28;20055;-75
2023/10/17 04:11:49;;;;;;;28.73;20.63;;;9.00;90.50;;;;;;5003890;28;20049;-77
2023/10/17 04:13:55;;;;;;;31.65;22.08;;;9.00;90.50;;;;;;4998819;28;20037;-74
2023/10/17 04:16:34;;;;;;;29.50;20.65;;;9.00;90.60;;;;;;4997392;28;20599;-75
2023/10/17 04:19:01;;;;;;;28.75;21.80;;;9.00;90.50;;;;;;5000307;28;20018;-72
2023/10/17 04:21:30;;;;;;;29.75;20.63;;;9.00;90.50;;;;;;5002704;28;20030;-75
2023/10/17 04:24:02;;;;;;;31.17;20.48;;;9.00;90.50;;;;;;4998701;28;20065;-73
2023/10/17 04:26:27;;;;;;;26.75;19.98;;;9.00;90.50;;;;;;4999673;28;20050;-76
2023/10/17 04:29:00;;;;;;;25.88;19.05;;;9.00;90.40;;;;;;4997439;28;20026;-75
2023/10/17 04:31:28;;;;;;;28.30;20.33;;;8.90;90.40;;;;;;5000373;28;20034;-76
2023/10/17 04:34:09;;;;;;;25.02;18.70;;;8.90;90.40;;;;;;4999322;28;20037;-74
2023/10/17 04:36:38;;;;;;;28.50;19.73;;;8.90;90.30;;;;;;5000137;28;20029;-73
2023/10/17 04:44:19;;;;;;;28.67;19.25;;;8.90;90.20;;;;;;4998881;28;19920;-74
2023/10/17 04:49:36;;;;;;;26.02;17.38;;;8.90;90.10;;;;;;4994857;28;20035;-76
2023/10/17 04:52:09;;;;;;;23.08;17.55;;;8.80;90.00;;;;;;4998045;28;20033;-73
2023/10/17 04:57:04;;;;;;;22.90;17.27;;;8.90;90.00;;;;;;4996989;28;20092;-74
2023/10/17 06:19:09;;;;;;;23.38;13.30;;;8.40;89.40;;;;;;4996657;28;20396;-74
2023/10/17 06:21:39;;;;;;;19.83;12.90;;;8.40;89.30;;;;;;4995365;28;20058;-72
2023/10/17 06:26:58;;;;;;;;;;;8.40;89.40;;;;;;5015541;28;20092;-73
2023/10/17 06:34:38;;;;;;;17.60;12.73;;;8.50;89.30;;;;;;5016672;28;20510;-74
2023/10/17 06:37:07;;;;;;;22.38;12.88;;;8.50;89.20;;;;;;5019088;28;20440;-74
2023/10/17 06:39:36;;;;;;;17.92;12.05;;;8.50;89.00;;;;;;5017955;28;20056;-74
2023/10/17 06:42:49;;;;;;;16.58;11.48;;;8.50;88.90;;;;;;5017677;28;20476;-73
2023/10/17 06:44:54;;;;;;;19.08;11.98;;;8.50;89.00;;;;;;5007454;28;20543;-73
2023/10/17 06:53:02;;;;;;;20.95;13.43;;;8.60;88.50;;;;;;5019021;28;20830;-73
2023/10/17 06:55:43;;;;;;;16.33;10.32;;;8.60;88.30;;;;;;5018732;28;20428;-73
2023/10/17 06:58:10;;;;;;;19.88;13.68;;;8.70;88.20;;;;;;5020319;28;20080;-74
2023/10/17 07:03:15;;;;;;;15.02;11.10;;;8.70;88.10;;;;;;5021942;28;20104;-73
2023/10/17 07:05:49;;;;;;;17.17;11.23;;;8.70;88.00;;;;;;5018748;28;20034;-73
2023/10/17 07:08:21;;;;;;;17.33;10.33;;;8.80;87.90;;;;;;5019994;28;20487;-73
2023/10/17 07:11:52;;;;;;;18.02;10.35;;;8.80;87.60;;;;;;5017444;28;20087;-73
2023/10/17 07:13:56;;;;;;;16.85;9.98;;;8.90;87.40;;;;;;5002850;28;20026;-73
2023/10/17 07:16:27;;;;;;;16.40;10.65;;;9.00;87.20;;;;;;5016753;28;20041;-73
2023/10/17 07:19:09;;;;;;;21.65;12.40;;;8.90;86.80;;;;;;5012585;28;20865;-73
2023/10/17 07:21:55;;;;;;;15.88;10.18;;;9.00;86.90;;;;;;5013327;28;20033;-71
2023/10/17 07:24:25;;;;;;;15.20;9.80;;;9.00;87.00;;;;;;5020122;28;20041;-72
2023/10/17 07:26:53;;;;;;;15.45;10.35;;;9.10;86.80;;;;;;5019296;28;20017;-72
2023/10/17 07:29:22;;;;;;;18.92;10.07;;;9.10;86.70;;;;;;5012166;28;20079;-72
2023/10/17 07:31:54;;;;;;;16.52;9.23;;;9.10;86.50;;;;;;5015340;28;20080;-73
2023/10/17 07:34:24;;;;;;;13.50;9.27;;;9.20;86.10;;;;;;5014977;28;20048;-73
2023/10/17 07:36:55;;;;;;;14.68;9.13;;;9.20;86.00;;;;;;5011791;28;20045;-72
2023/10/17 07:39:36;;;;;;;17.10;9.85;;;9.30;85.90;;;;;;5014721;28;20630;-73
2023/10/17 07:42:04;;;;;;;15.23;9.38;;;9.30;85.80;;;;;;5016181;28;20112;-71
2023/10/17 07:44:34;;;;;;;15.38;9.52;;;9.30;85.40;;;;;;5020295;28;20030;-72
2023/10/17 07:49:35;;;;;;;13.55;8.57;;;9.40;85.40;;;;;;5017475;28;20046;-73
2023/10/17 07:52:15;;;;;;;14.05;9.65;;;9.40;85.20;;;;;;5012549;28;20025;-73
2023/10/17 07:54:57;;;;;;;14.15;8.93;;;9.40;85.10;;;;;;5017646;28;20649;-72
2023/10/17 07:57:28;;;;;;;12.70;8.07;;;9.40;85.20;;;;;;5009757;28;20476;-73
2023/10/17 07:59:59;;;;;;;15.20;8.00;;;9.40;84.60;;;;;;5018380;28;20401;-73
2023/10/17 08:02:30;;;;;;;13.65;8.82;;;9.40;84.50;;;;;;5016193;28;20157;-73
2023/10/17 08:05:00;;;;;;;11.55;7.20;;;9.40;84.50;;;;;;5019027;28;20049;-74
2023/10/17 08:07:29;;;;;;;12.48;6.72;;;9.50;84.10;;;;;;5011948;28;20018;-73
2023/10/17 08:09:57;;;;;;;10.55;6.40;;;9.60;84.10;;;;;;5018823;28;20480;-73
2023/10/17 08:12:24;;;;;;;13.10;8.10;;;9.60;83.50;;;;;;5016269;28;20388;-73
2023/10/17 08:15:05;;;;;;;10.82;7.13;;;9.60;83.50;;;;;;5016767;28;20099;-73
2023/10/17 08:17:34;;;;;;;11.98;6.82;;;9.60;83.50;;;;;;5017620;28;20021;-73
2023/10/17 08:20:03;;;;;;;12.45;8.35;;;9.70;83.20;;;;;;5013221;28;20045;-73
2023/10/17 08:22:54;;;;;;;13.32;7.10;;;9.70;83.20;;;;;;5006963;28;20026;-73
2023/10/17 08:25:15;;;;;;;11.75;7.30;;;9.70;83.00;;;;;;5014420;28;20103;-74
2023/10/17 08:27:41;;;;;;;12.05;6.78;;;9.80;83.10;;;;;;5018321;28;20083;-73
2023/10/17 08:30:16;;;;;;;13.05;7.45;;;10.10;82.90;;;;;;5020534;28;20037;-74
2023/10/17 08:32:54;;;;;;;;;;;10.20;82.20;;;;;;5018470;28;20021;-74
2023/10/17 08:35:20;;;;;;;12.05;6.65;;;10.40;81.30;;;;;;5016376;28;20442;-73
2023/10/17 08:37:47;;;;;;;11.75;7.20;;;10.70;81.00;;;;;;5013844;28;20021;-74
2023/10/17 08:43:03;;;;;;;10.98;6.90;;;11.10;80.10;;;;;;5019632;28;20395;-74
2023/10/17 08:45:36;;;;;;;10.48;6.38;;;11.20;78.70;;;;;;5015906;28;20164;-73
2023/10/17 08:48:01;;;;;;;13.63;6.78;;;11.30;78.40;;;;;;5018593;28;20036;-74
2023/10/17 08:50:43;;;;;;;10.40;6.93;;;11.40;78.20;;;;;;5016740;28;20038;-75
2023/10/17 08:53:30;;;;;;;13.57;7.22;;;11.50;78.10;;;;;;5019760;28;20105;-73
2023/10/17 08:55:56;;;;;;;10.00;6.60;;;11.60;78.40;;;;;;5018376;28;20045;-74
2023/10/17 08:58:30;;;;;;;10.18;5.93;;;11.70;77.80;;;;;;5015561;28;20045;-74
2023/10/17 09:00:56;;;;;;;10.93;6.38;;;11.90;77.00;;;;;;5019313;28;20041;-72
2023/10/17 09:03:28;;;;;;;9.20;5.75;;;12.10;76.70;;;;;;5020515;28;20032;-73
2023/10/17 09:06:56;;;;;;;12.27;6.50;;;12.20;76.30;;;;;;5018016;28;20042;-74
2023/10/17 09:11:33;;;;;;;10.68;6.28;;;12.40;75.20;;;;;;5022412;28;20033;-73
2023/10/17 09:14:17;;;;;;;12.05;5.90;;;12.50;75.90;;;;;;5016521;28;20029;-74
2023/10/17 09:17:03;;;;;;;11.00;6.35;;;12.30;75.10;;;;;;5017737;28;20056;-74
2023/10/17 09:19:46;;;;;;;10.65;6.07;;;12.40;75.00;;;;;;5020463;28;20053;-73
2023/10/17 09:22:15;;;;;;;14.48;6.82;;;12.30;74.80;;;;;;5015651;28;20036;-73
2023/10/17 09:24:45;;;;;;;13.18;5.70;;;12.50;75.90;;;;;;5012058;28;20033;-74
2023/10/17 09:27:14;;;;;;;16.63;6.32;;;12.70;74.90;;;;;;5019981;28;20586;-72
2023/10/17 09:29:51;;;;;;;10.23;6.68;;;12.80;73.60;;;;;;5017345;28;20531;-73
2023/10/17 09:32:36;;;;;;;10.73;7.15;;;12.80;73.50;;;;;;5016038;28;20029;-73
2023/10/17 09:35:15;;;;;;;11.85;6.68;;;13.00;73.40;;;;;;5020203;28;20041;-73
2023/10/17 09:37:43;;;;;;;9.27;5.60;;;13.10;73.30;;;;;;5019188;28;20075;-73
2023/10/17 09:40:13;;;;;;;12.38;6.25;;;12.90;72.30;;;;;;5021441;28;20045;-74
2023/10/17 09:42:45;;;;;;;14.93;6.53;;;12.70;73.10;;;;;;5015071;28;20057;-73
2023/10/17 09:45:15;;;;;;;12.52;6.10;;;12.80;74.00;;;;;;5016571;28;20041;-73
2023/10/17 09:47:44;;;;;;;9.82;5.95;;;13.00;73.20;;;;;;5019690;28;20575;-72
2023/10/17 09:50:17;;;;;;;9.05;5.28;;;13.10;72.80;;;;;;5020870;28;20045;-73
2023/10/17 09:52:46;;;;;;;12.25;6.15;;;13.10;72.00;;;;;;5020935;28;20025;-73
2023/10/17 09:55:16;;;;;;;11.02;5.80;;;13.10;72.20;;;;;;5019924;28;20832;-73
2023/10/17 09:57:47;;;;;;;9.48;5.60;;;13.20;72.20;;;;;;5021743;28;20048;-73
2023/10/17 10:00:42;;;;;;;9.90;5.43;;;13.20;71.30;;;;;;5015314;28;20603;-73
2023/10/17 10:03:09;;;;;;;10.68;5.70;;;13.30;71.00;;;;;;5021369;28;20395;-74
2023/10/17 10:05:35;;;;;;;9.85;5.38;;;13.40;71.30;;;;;;5018068;28;20052;-73
2023/10/17 10:08:25;;;;;;;12.15;5.35;;;13.60;71.00;;;;;;5020172;28;20673;-74
2023/10/17 10:10:52;;;;;;;10.48;5.60;;;13.60;70.20;;;;;;5017790;28;20041;-73
2023/10/17 10:13:19;;;;;;;9.02;5.43;;;13.60;69.90;;;;;;5021717;28;20087;-74
2023/10/17 10:15:55;;;;;;;9.82;5.55;;;13.60;70.30;;;;;;5014357;28;20964;-73
2023/10/17 10:18:33;;;;;;;10.38;5.10;;;13.70;69.30;;;;;;5014284;28;20100;-74
2023/10/17 10:20:59;;;;;;;9.57;5.35;;;13.70;69.30;;;;;;5017235;28;20050;-74
2023/10/17 10:23:41;;;;;;;9.10;4.78;;;13.80;69.00;;;;;;5017505;28;20045;-74
2023/10/17 10:26:19;;;;;;;8.48;5.45;;;13.70;69.30;;;;;;5013270;28;20049;-73
2023/10/17 10:28:52;;;;;;;10.40;5.60;;;13.70;69.20;;;;;;5012485;28;20014;-73
2023/10/17 10:31:21;;;;;;;9.63;5.68;;;13.80;69.20;;;;;;5009837;28;20045;-74
2023/10/17 10:33:52;;;;;;;10.50;5.78;;;13.80;70.20;;;;;;5019911;28;20051;-74
2023/10/17 10:36:23;;;;;;;8.07;5.57;;;13.60;69.80;;;;;;5012047;28;20810;-74
2023/10/17 10:38:49;;;;;;;9.95;5.20;;;13.70;70.20;;;;;;5017467;28;20025;-73
2023/10/17 10:41:15;;;;;;;10.43;5.68;;;13.90;70.10;;;;;;5013045;28;20042;-74
2023/10/17 10:43:46;;;;;;;8.77;5.22;;;13.80;68.30;;;;;;5018435;28;20075;-75
2023/10/17 10:46:14;;;;;;;8.27;4.93;;;13.70;68.60;;;;;;5018364;28;20033;-74
2023/10/17 10:48:47;;;;;;;11.45;5.70;;;13.90;69.50;;;;;;5015233;28;20040;-73
2023/10/17 10:51:15;;;;;;;8.82;5.35;;;13.80;68.70;;;;;;5009820;28;20038;-75
2023/10/17 10:53:44;;;;;;;9.93;5.20;;;14.00;69.50;;;;;;5012067;28;20034;-74
2023/10/17 10:56:11;;;;;;;11.15;4.97;;;13.80;68.80;;;;;;5014309;28;20018;-74
2023/10/17 10:58:51;;;;;;;10.00;5.85;;;13.90;68.60;;;;;;5019667;28;20548;-74
2023/10/17 11:01:23;;;;;;;8.88;5.15;;;14.00;69.30;;;;;;5018610;28;20506;-73
2023/10/17 11:03:50;;;;;;;9.23;4.88;;;14.10;68.20;;;;;;5018438;28;20036;-73
2023/10/17 11:06:23;;;;;;;10.50;5.28;;;14.10;68.70;;;;;;5017398;28;20025;-73
2023/10/17 11:08:49;;;;;;;9.30;5.45;;;14.10;66.90;;;;;;5020308;28;20038;-72
2023/10/17 11:11:16;;;;;;;8.82;5.10;;;14.20;67.70;;;;;;5017070;28;20025;-73
2023/10/17 11:13:49;;;;;;;10.50;5.53;;;14.20;67.10;;;;;;5016620;28;20026;-73
2023/10/17 11:16:21;;;;;;;7.70;4.78;;;14.30;66.70;;;;;;5019610;28;20529;-73
2023/10/17 11:18:48;;;;;;;7.68;4.72;;;14.20;66.30;;;;;;5017350;28;20033;-73
2023/10/17 11:21:17;;;;;;;8.10;5.43;;;14.20;66.30;;;;;;5009884;28;20082;-73
2023/10/17 11:23:54;;;;;;;7.75;4.82;;;14.50;66.90;;;;;;5010319;28;20034;-73
2023/10/17 11:26:23;;;;;;;8.35;4.97;;;14.40;65.90;;;;;;5008116;28;20042;-74
2023/10/17 11:28:51;;;;;;;9.18;4.70;;;14.50;66.10;;;;;;5005833;28;20061;-73
2023/10/17 11:31:21;;;;;;;10.73;4.47;;;14.30;66.50;;;;;;5012180;28;20120;-72
2023/10/17 11:34:04;;;;;;;8.63;4.60;;;14.20;66.50;;;;;;5007339;28;20480;-72
2023/10/17 11:36:55;;;;;;;8.80;4.03;;;14.20;66.20;;;;;;5008694;28;20038;-74
2023/10/17 11:39:26;;;;;;;8.20;4.55;;;14.40;66.70;;;;;;5009870;28;20017;-75
2023/10/17 11:41:55;;;;;;;7.32;4.05;;;14.50;65.60;;;;;;5006273;28;20029;-75
2023/10/17 11:44:25;;;;;;;9.68;4.30;;;14.50;65.80;;;;;;5010519;28;20509;-75
2023/10/17 11:47:03;;;;;;;7.63;4.20;;;14.80;65.10;;;;;;5011596;28;20025;-74
2023/10/17 11:49:35;;;;;;;8.75;4.10;;;14.80;65.20;;;;;;5017852;28;20090;-73
2023/10/17 11:52:04;;;;;;;10.10;4.55;;;14.80;63.50;;;;;;5019309;28;20479;-72
2023/10/17 11:54:31;;;;;;;8.43;4.15;;;14.80;63.30;;;;;;5017754;28;20211;-73
2023/10/17 11:57:13;;;;;;;6.80;4.05;;;14.60;63.80;;;;;;5014357;28;20033;-72
2023/10/17 11:59:56;;;;;;;9.25;4.00;;;14.60;63.80;;;;;;5013417;28;20021;-74
2023/10/17 12:02:23;;;;;;;6.78;3.55;;;14.50;64.00;;;;;;5019162;28;20028;-75
2023/10/17 12:04:49;;;;;;;9.48;4.13;;;14.60;64.30;;;;;;5021048;28;20037;-72
2023/10/17 12:07:15;;;;;;;8.30;4.32;;;14.60;64.30;;;;;;5022603;28;20030;-73
2023/10/17 12:09:41;;;;;;;6.65;3.63;;;14.60;64.40;;;;;;5019424;28;20038;-73
2023/10/17 12:12:06;;;;;;;8.85;3.85;;;14.70;63.00;;;;;;5014598;28;20021;-74
2023/10/17 12:14:35;;;;;;;8.63;4.22;;;14.60;63.50;;;;;;5018264;28;20639;-73
2023/10/17 12:17:01;;;;;;;8.00;4.00;;;14.80;63.50;;;;;;5015552;28;20132;-74
2023/10/17 12:19:27;;;;;;;8.52;3.53;;;14.70;62.90;;;;;;5017671;28;20650;-76
2023/10/17 12:22:00;;;;;;;7.43;3.67;;;14.70;63.20;;;;;;5016338;28;20033;-74
2023/10/17 12:24:34;;;;;;;5.15;3.30;;;14.60;63.00;;;;;;5010522;28;20602;-75
2023/10/17 12:27:00;;;;;;;8.85;3.88;;;14.80;63.40;;;;;;5019497;28;20036;-75
2023/10/17 12:29:26;;;;;;;6.53;3.38;;;15.00;61.90;;;;;;5017681;28;20033;-74
2023/10/17 12:31:57;;;;;;;6.68;3.90;;;15.00;62.30;;;;;;5022508;28;20029;-74
2023/10/17 12:34:23;;;;;;;7.18;3.60;;;15.10;63.20;;;;;;5018251;28;20048;-73
2023/10/17 12:36:49;;;;;;;6.85;3.58;;;15.10;62.90;;;;;;5016685;28;20033;-75
2023/10/17 12:39:17;;;;;;;10.15;3.25;;;15.20;62.80;;;;;;5022506;28;20053;-75
2023/10/17 12:41:48;;;;;;;6.13;3.50;;;15.20;62.00;;;;;;5018930;28;20124;-75
2023/10/17 12:44:15;;;;;;;9.73;3.83;;;15.00;61.90;;;;;;5014219;28;20060;-73
2023/10/17 12:46:41;;;;;;;8.27;3.15;;;14.90;61.70;;;;;;5016197;28;20087;-75
2023/10/17 12:49:07;;;;;;;7.20;3.50;;;14.80;61.90;;;;;;5012376;28;20372;-73
2023/10/17 12:51:33;;;;;;;7.32;3.30;;;14.90;62.90;;;;;;5018739;28;20065;-74
2023/10/17 12:53:59;;;;;;;6.70;3.50;;;15.00;62.60;;;;;;5020158;28;20053;-73
2023/10/17 12:56:24;;;;;;;8.63;3.90;;;15.10;63.20;;;;;;5020970;28;20038;-72
2023/10/17 12:58:51;;;;;;;7.00;3.78;;;15.10;61.90;;;;;;5022291;28;20030;-74
2023/10/17 13:01:24;;;;;;;8.82;3.40;;;15.10;61.30;;;;;;5016487;28;20021;-73
2023/10/17 13:03:53;;;;;;;6.97;3.33;;;15.00;61.90;;;;;;5012312;28;20109;-73
2023/10/17 13:06:20;;;;;;;6.25;3.30;;;15.00;62.10;;;;;;5019714;28;20037;-73
2023/10/17 13:08:47;;;;;;;7.15;3.35;;;15.10;62.20;;;;;;5015971;28;20048;-73
2023/10/17 13:11:12;;;;;;;8.38;3.03;;;15.00;62.20;;;;;;5016734;28;20034;-75
2023/10/17 13:13:39;;;;;;;7.43;2.97;;;15.00;62.20;;;;;;5018214;28;20025;-74
2023/10/17 13:16:05;;;;;;;7.05;3.80;;;15.00;62.80;;;;;;5018016;28;20128;-73
2023/10/17 13:18:35;;;;;;;6.25;3.38;;;15.10;62.90;;;;;;5021081;28;20029;-74
2023/10/17 13:21:12;;;;;;;7.72;3.10;;;15.20;63.10;;;;;;5018851;28;20037;-73
2023/10/17 13:23:42;;;;;;;4.88;2.75;;;15.10;61.90;;;;;;5018677;28;20014;-74
2023/10/17 13:26:18;;;;;;;7.18;3.58;;;15.00;61.80;;;;;;5015134;28;21194;-74
2023/10/17 13:28:44;;;;;;;6.53;3.47;;;14.90;61.60;;;;;;5017853;28;20025;-73
2023/10/17 13:31:15;;;;;;;6.07;3.22;;;14.90;62.40;;;;;;5018129;28;20038;-73
2023/10/17 13:33:42;;;;;;;6.70;3.10;;;15.00;62.40;;;;;;5017817;28;20018;-73
2023/10/17 13:36:16;;;;;;;6.95;3.85;;;14.90;62.90;;;;;;5015618;28;20395;-74
2023/10/17 13:38:43;;;;;;;7.90;3.77;;;15.10;63.10;;;;;;5013292;28;20013;-74
2023/10/17 13:41:09;;;;;;;6.82;3.30;;;15.10;63.40;;;;;;5011363;28;20889;-74
2023/10/17 13:43:40;;;;;;;8.25;3.35;;;15.10;63.20;;;;;;5018186;28;20480;-73
2023/10/17 13:46:13;;;;;;;7.65;3.42;;;15.10;64.20;;;;;;5011794;28;20557;-74
2023/10/17 13:48:40;;;;;;;5.82;3.15;;;15.00;62.40;;;;;;5034315;28;20048;-73
2023/10/17 13:51:06;;;;;;;5.75;3.28;;;15.00;62.40;;;;;;5020782;28;20030;-73
2023/10/17 13:53:36;;;;;;;7.78;3.40;;;15.00;63.70;;;;;;5018119;28;20621;-74
2023/10/17 13:56:15;;;;;;;8.20;3.50;;;14.90;63.70;;;;;;5021941;28;20052;-73
2023/10/17 13:58:41;;;;;;;9.10;3.90;;;14.90;63.10;;;;;;5014736;28;20041;-74
2023/10/17 14:03:56;;;;;;;7.53;3.10;;;14.70;63.60;;;;;;5015036;28;20404;-74
2023/10/17 14:06:22;;;;;;;8.77;3.10;;;14.70;62.30;;;;;;5012665;28;20041;-73
2023/10/17 14:08:50;;;;;;;7.45;3.47;;;14.70;62.60;;;;;;5020511;28;20025;-74
2023/10/17 14:11:20;;;;;;;6.80;3.15;;;14.80;63.20;;;;;;5019431;28;20026;-74
2023/10/17 14:13:49;;;;;;;8.85;3.63;;;14.60;63.00;;;;;;5014194;28;20037;-72
2023/10/17 14:16:15;;;;;;;7.97;3.35;;;14.70;63.10;;;;;;5016228;28;20045;-73
2023/10/17 14:18:46;;;;;;;6.50;3.00;;;14.80;62.60;;;;;;5015668;28;20462;-71
2023/10/17 14:23:57;;;;;;;7.55;3.15;;;14.80;63.20;;;;;;5018614;28;20499;-72
2023/10/17 14:26:30;;;;;;;5.93;3.22;;;14.80;63.10;;;;;;5011511;28;20128;-72
2023/10/17 14:28:57;;;;;;;6.40;3.10;;;14.70;62.80;;;;;;5016437;28;20041;-72
2023/10/17 14:31:26;;;;;;;7.80;3.55;;;14.80;64.00;;;;;;5013813;28;20465;-73
2023/10/17 14:33:51;;;;;;;7.97;3.20;;;14.80;64.10;;;;;;5013793;28;20041;-73
2023/10/17 14:36:18;;;;;;;6.03;3.15;;;14.70;64.10;;;;;;5015776;28;20045;-73
2023/10/17 14:38:45;;;;;;;6.35;2.75;;;14.60;63.60;;;;;;5020331;28;20056;-73
2023/10/17 14:41:14;;;;;;;8.73;3.33;;;14.60;64.00;;;;;;5017602;28;20342;-74
2023/10/17 14:43:43;;;;;;;4.72;2.90;;;14.60;64.70;;;;;;5020193;28;20104;-73
2023/10/17 14:46:10;;;;;;;9.68;3.50;;;14.60;63.80;;;;;;5013749;28;20041;-73
2023/10/17 14:48:36;;;;;;;7.43;3.00;;;14.60;63.10;;;;;;5019272;28;20025;-72
2023/10/17 14:51:03;;;;;;;8.90;3.17;;;14.50;64.20;;;;;;5008560;28;20104;-72
2023/10/17 14:53:28;;;;;;;6.68;2.78;;;14.50;63.90;;;;;;5018728;28;20032;-74
2023/10/17 14:55:58;;;;;;;5.45;2.72;;;14.60;64.10;;;;;;5017990;28;20034;-72
2023/10/17 14:58:24;;;;;;;7.43;3.30;;;14.60;63.70;;;;;;5015701;28;20038;-73
2023/10/17 15:00:52;;;;;;;7.65;3.13;;;14.40;63.30;;;;;;5014347;28;20041;-73
2023/10/17 15:03:21;;;;;;;8.90;5.05;;;14.30;64.20;;;;;;5020177;28;20443;-72
2023/10/17 15:05:47;;;;;;;8.05;3.70;;;14.30;64.70;;;;;;5019272;28;20051;-73
2023/10/17 15:08:14;;;;;;;10.48;3.00;;;14.20;64.30;;;;;;5022193;28;20026;-76
2023/10/17 15:10:40;;;;;;;9.32;3.90;;;14.20;65.10;;;;;;5017073;28;20057;-73